sensor_id;sensor_type;location;lat;lon;timestamp;temperature;humidity
65064;DHT22;51654;51.452;6.644;2022-07-23T00:00:13;19.60;65.40
65064;DHT22;51654;51.452;6.644;2022-07-23T00:02:40;19.70;65.40
65064;DHT22;51654;51.452;6.644;2022-07-23T00:05:07;19.60;65.30
65064;DHT22;51654;51.452;6.644;2022-07-23T00:07:34;19.60;65.30
65064;DHT22;51654;51.452;6.644;2022-07-23T00:10:01;19.50;65.40
65064;DHT22;51654;51.452;6.644;2022-07-23T00:12:28;19.50;65.40
65064;DHT22;51654;51.452;6.644;2022-07-23T00:14:54;19.40;65.70
65064;DHT22;51654;51.452;6.644;2022-07-23T00:17:21;19.40;65.90
65064;DHT22;51654;51.452;6.644;2022-07-23T00:19:48;19.40;65.90
65064;DHT22;51654;51.452;6.644;2022-07-23T00:22:15;19.40;65.80
65064;DHT22;51654;51.452;6.644;2022-07-23T00:24:41;19.40;65.70
65064;DHT22;51654;51.452;6.644;2022-07-23T00:27:08;19.30;65.80
65064;DHT22;51654;51.452;6.644;2022-07-23T00:29:36;19.20;65.80
65064;DHT22;51654;51.452;6.644;2022-07-23T00:32:03;19.00;66.10
65064;DHT22;51654;51.452;6.644;2022-07-23T00:34:30;18.90;66.50
65064;DHT22;51654;51.452;6.644;2022-07-23T00:36:56;19.00;66.90
65064;DHT22;51654;51.452;6.644;2022-07-23T00:39:23;19.00;66.80
65064;DHT22;51654;51.452;6.644;2022-07-23T00:41:50;19.00;66.70
65064;DHT22;51654;51.452;6.644;2022-07-23T00:44:18;19.00;67.00
65064;DHT22;51654;51.452;6.644;2022-07-23T00:46:46;19.00;66.90
65064;DHT22;51654;51.452;6.644;2022-07-23T00:49:13;19.00;67.00
65064;DHT22;51654;51.452;6.644;2022-07-23T00:51:41;19.10;66.60
65064;DHT22;51654;51.452;6.644;2022-07-23T00:54:08;19.00;66.70
65064;DHT22;51654;51.452;6.644;2022-07-23T00:56:35;19.10;66.50
65064;DHT22;51654;51.452;6.644;2022-07-23T00:59:02;19.00;66.40
65064;DHT22;51654;51.452;6.644;2022-07-23T01:01:29;19.00;66.30
65064;DHT22;51654;51.452;6.644;2022-07-23T01:03:56;19.00;66.20
65064;DHT22;51654;51.452;6.644;2022-07-23T01:06:23;18.90;66.20
65064;DHT22;51654;51.452;6.644;2022-07-23T01:08:50;18.80;66.40
65064;DHT22;51654;51.452;6.644;2022-07-23T01:11:17;18.70;66.50
65064;DHT22;51654;51.452;6.644;2022-07-23T01:13:44;18.70;66.80
65064;DHT22;51654;51.452;6.644;2022-07-23T01:16:11;18.60;66.90
65064;DHT22;51654;51.452;6.644;2022-07-23T01:18:38;18.60;67.10
65064;DHT22;51654;51.452;6.644;2022-07-23T01:21:05;18.60;67.20
65064;DHT22;51654;51.452;6.644;2022-07-23T01:23:32;18.50;67.30
65064;DHT22;51654;51.452;6.644;2022-07-23T01:26:00;18.50;67.60
65064;DHT22;51654;51.452;6.644;2022-07-23T01:28:28;18.50;67.90
65064;DHT22;51654;51.452;6.644;2022-07-23T01:30:56;18.50;68.00
65064;DHT22;51654;51.452;6.644;2022-07-23T01:33:23;18.50;68.10
65064;DHT22;51654;51.452;6.644;2022-07-23T01:35:50;18.60;68.00
65064;DHT22;51654;51.452;6.644;2022-07-23T01:38:21;18.60;67.90
65064;DHT22;51654;51.452;6.644;2022-07-23T01:40:48;18.60;67.90
65064;DHT22;51654;51.452;6.644;2022-07-23T01:43:21;18.60;68.00
65064;DHT22;51654;51.452;6.644;2022-07-23T01:45:51;18.60;67.90
65064;DHT22;51654;51.452;6.644;2022-07-23T01:48:18;18.50;67.80
65064;DHT22;51654;51.452;6.644;2022-07-23T01:51:01;18.50;68.20
65064;DHT22;51654;51.452;6.644;2022-07-23T01:53:41;18.40;68.40
65064;DHT22;51654;51.452;6.644;2022-07-23T01:56:07;18.30;68.30
65064;DHT22;51654;51.452;6.644;2022-07-23T01:58:34;18.20;68.70
65064;DHT22;51654;51.452;6.644;2022-07-23T02:01:01;18.10;69.00
65064;DHT22;51654;51.452;6.644;2022-07-23T02:03:28;18.20;69.10
65064;DHT22;51654;51.452;6.644;2022-07-23T02:05:55;18.20;69.10
65064;DHT22;51654;51.452;6.644;2022-07-23T02:08:24;18.30;69.00
65064;DHT22;51654;51.452;6.644;2022-07-23T02:10:51;18.30;68.90
65064;DHT22;51654;51.452;6.644;2022-07-23T02:13:17;18.30;68.60
65064;DHT22;51654;51.452;6.644;2022-07-23T02:15:47;18.30;68.60
65064;DHT22;51654;51.452;6.644;2022-07-23T02:18:14;18.20;68.60
65064;DHT22;51654;51.452;6.644;2022-07-23T02:20:41;18.10;68.70
65064;DHT22;51654;51.452;6.644;2022-07-23T02:23:08;18.10;68.80
65064;DHT22;51654;51.452;6.644;2022-07-23T02:25:35;18.00;68.50
65064;DHT22;51654;51.452;6.644;2022-07-23T02:28:02;17.90;68.60
65064;DHT22;51654;51.452;6.644;2022-07-23T02:30:29;17.90;68.80
65064;DHT22;51654;51.452;6.644;2022-07-23T02:32:56;17.90;69.10
65064;DHT22;51654;51.452;6.644;2022-07-23T02:35:24;17.90;69.10
65064;DHT22;51654;51.452;6.644;2022-07-23T02:37:51;17.90;69.00
65064;DHT22;51654;51.452;6.644;2022-07-23T02:40:18;17.90;69.00
65064;DHT22;51654;51.452;6.644;2022-07-23T02:42:44;18.00;69.00
65064;DHT22;51654;51.452;6.644;2022-07-23T02:45:12;18.00;69.10
65064;DHT22;51654;51.452;6.644;2022-07-23T02:47:39;18.00;68.60
65064;DHT22;51654;51.452;6.644;2022-07-23T02:50:06;17.90;68.50
65064;DHT22;51654;51.452;6.644;2022-07-23T02:52:33;17.90;68.80
65064;DHT22;51654;51.452;6.644;2022-07-23T02:55:01;17.80;68.80
65064;DHT22;51654;51.452;6.644;2022-07-23T02:57:28;17.80;69.00
65064;DHT22;51654;51.452;6.644;2022-07-23T02:59:56;17.90;69.00
65064;DHT22;51654;51.452;6.644;2022-07-23T03:02:23;18.00;68.70
65064;DHT22;51654;51.452;6.644;2022-07-23T03:04:50;18.00;68.70
65064;DHT22;51654;51.452;6.644;2022-07-23T03:07:17;18.00;68.80
65064;DHT22;51654;51.452;6.644;2022-07-23T03:09:44;18.00;68.60
65064;DHT22;51654;51.452;6.644;2022-07-23T03:12:10;18.00;68.30
65064;DHT22;51654;51.452;6.644;2022-07-23T03:14:40;18.00;68.20
65064;DHT22;51654;51.452;6.644;2022-07-23T03:17:08;17.90;68.30
65064;DHT22;51654;51.452;6.644;2022-07-23T03:19:35;17.80;68.50
65064;DHT22;51654;51.452;6.644;2022-07-23T07:44:25;27.50;38.40
65064;DHT22;51654;51.452;6.644;2022-07-23T07:46:52;27.60;38.00
65064;DHT22;51654;51.452;6.644;2022-07-23T07:49:19;27.60;37.80
65064;DHT22;51654;51.452;6.644;2022-07-23T07:51:48;27.50;37.20
65064;DHT22;51654;51.452;6.644;2022-07-23T07:54:15;27.40;37.80
65064;DHT22;51654;51.452;6.644;2022-07-23T07:56:42;27.40;37.60
65064;DHT22;51654;51.452;6.644;2022-07-23T07:59:09;27.50;37.60
65064;DHT22;51654;51.452;6.644;2022-07-23T08:01:36;27.60;37.30
65064;DHT22;51654;51.452;6.644;2022-07-23T08:04:03;27.60;37.00
65064;DHT22;51654;51.452;6.644;2022-07-23T08:06:31;27.50;37.10
65064;DHT22;51654;51.452;6.644;2022-07-23T08:08:58;27.50;37.50
65064;DHT22;51654;51.452;6.644;2022-07-23T08:11:25;27.70;37.40
65064;DHT22;51654;51.452;6.644;2022-07-23T08:13:51;27.90;36.90
65064;DHT22;51654;51.452;6.644;2022-07-23T08:16:18;28.10;36.90
65064;DHT22;51654;51.452;6.644;2022-07-23T08:18:45;28.50;36.40
65064;DHT22;51654;51.452;6.644;2022-07-23T08:21:13;28.60;35.90
65064;DHT22;51654;51.452;6.644;2022-07-23T08:23:39;28.80;36.00
65064;DHT22;51654;51.452;6.644;2022-07-23T08:26:06;28.80;35.60
65064;DHT22;51654;51.452;6.644;2022-07-23T08:28:33;28.90;35.40
65064;DHT22;51654;51.452;6.644;2022-07-23T08:31:01;29.00;34.80
65064;DHT22;51654;51.452;6.644;2022-07-23T08:33:28;29.00;34.30
65064;DHT22;51654;51.452;6.644;2022-07-23T08:36:01;28.80;34.10
65064;DHT22;51654;51.452;6.644;2022-07-23T08:38:30;28.70;34.60
65064;DHT22;51654;51.452;6.644;2022-07-23T08:40:57;29.00;34.50
65064;DHT22;51654;51.452;6.644;2022-07-23T08:43:31;29.10;34.10
65064;DHT22;51654;51.452;6.644;2022-07-23T08:46:01;29.00;34.00
65064;DHT22;51654;51.452;6.644;2022-07-23T08:48:33;29.00;34.10
65064;DHT22;51654;51.452;6.644;2022-07-23T08:51:02;29.10;34.00
65064;DHT22;51654;51.452;6.644;2022-07-23T08:53:30;29.40;33.50
65064;DHT22;51654;51.452;6.644;2022-07-23T08:56:00;29.50;33.20
65064;DHT22;51654;51.452;6.644;2022-07-23T08:58:28;29.80;33.40
65064;DHT22;51654;51.452;6.644;2022-07-23T09:00:56;30.00;33.00
65064;DHT22;51654;51.452;6.644;2022-07-23T09:03:26;30.20;32.70
65064;DHT22;51654;51.452;6.644;2022-07-23T09:05:54;30.40;32.20
65064;DHT22;51654;51.452;6.644;2022-07-23T09:08:43;30.60;31.80
65064;DHT22;51654;51.452;6.644;2022-07-23T09:11:13;30.90;31.40
65064;DHT22;51654;51.452;6.644;2022-07-23T09:13:47;31.00;31.00
65064;DHT22;51654;51.452;6.644;2022-07-23T09:16:26;31.10;30.20
65064;DHT22;51654;51.452;6.644;2022-07-23T09:19:04;31.10;29.90
65064;DHT22;51654;51.452;6.644;2022-07-23T09:21:32;31.10;29.60
65064;DHT22;51654;51.452;6.644;2022-07-23T09:24:01;31.10;29.40
65064;DHT22;51654;51.452;6.644;2022-07-23T09:26:38;30.80;29.20
65064;DHT22;51654;51.452;6.644;2022-07-23T09:29:12;30.60;29.90
65064;DHT22;51654;51.452;6.644;2022-07-23T09:31:55;30.50;30.40
65064;DHT22;51654;51.452;6.644;2022-07-23T09:36:53;30.80;29.80
65064;DHT22;51654;51.452;6.644;2022-07-23T09:39:31;30.90;30.20
65064;DHT22;51654;51.452;6.644;2022-07-23T09:42:16;31.10;30.20
65064;DHT22;51654;51.452;6.644;2022-07-23T09:44:48;31.40;29.60
65064;DHT22;51654;51.452;6.644;2022-07-23T09:47:17;31.30;29.10
65064;DHT22;51654;51.452;6.644;2022-07-23T09:50:06;31.30;29.60
65064;DHT22;51654;51.452;6.644;2022-07-23T09:52:42;31.20;29.40
65064;DHT22;51654;51.452;6.644;2022-07-23T09:55:10;31.00;28.90
65064;DHT22;51654;51.452;6.644;2022-07-23T09:57:37;30.80;29.50
65064;DHT22;51654;51.452;6.644;2022-07-23T10:00:08;30.70;29.80
65064;DHT22;51654;51.452;6.644;2022-07-23T10:02:38;30.70;29.60
65064;DHT22;51654;51.452;6.644;2022-07-23T10:05:25;30.50;29.60
65064;DHT22;51654;51.452;6.644;2022-07-23T10:08:17;30.20;29.90
65064;DHT22;51654;51.452;6.644;2022-07-23T10:11:14;30.20;30.30
65064;DHT22;51654;51.452;6.644;2022-07-23T10:13:53;30.20;29.80
65064;DHT22;51654;51.452;6.644;2022-07-23T10:16:34;30.00;29.90
65064;DHT22;51654;51.452;6.644;2022-07-23T10:19:02;29.70;29.80
65064;DHT22;51654;51.452;6.644;2022-07-23T10:21:46;29.60;30.40
65064;DHT22;51654;51.452;6.644;2022-07-23T10:24:28;29.80;30.20
65064;DHT22;51654;51.452;6.644;2022-07-23T10:37:45;30.00;30.30
65064;DHT22;51654;51.452;6.644;2022-07-23T10:40:14;30.10;30.50
65064;DHT22;51654;51.452;6.644;2022-07-23T10:42:47;30.20;30.20
65064;DHT22;51654;51.452;6.644;2022-07-23T10:45:35;30.30;29.80
65064;DHT22;51654;51.452;6.644;2022-07-23T10:48:16;30.10;29.50
65064;DHT22;51654;51.452;6.644;2022-07-23T10:51:09;30.00;30.00
65064;DHT22;51654;51.452;6.644;2022-07-23T10:54:09;29.80;30.70
65064;DHT22;51654;51.452;6.644;2022-07-23T10:59:17;29.70;30.80
65064;DHT22;51654;51.452;6.644;2022-07-23T11:01:45;29.50;30.40
65064;DHT22;51654;51.452;6.644;2022-07-23T11:04:12;29.40;31.00
65064;DHT22;51654;51.452;6.644;2022-07-23T11:09:29;28.90;30.60
65064;DHT22;51654;51.452;6.644;2022-07-23T11:17:28;28.90;31.70
65064;DHT22;51654;51.452;6.644;2022-07-23T11:25:33;29.00;30.70
65064;DHT22;51654;51.452;6.644;2022-07-23T11:28:15;28.90;30.30
65064;DHT22;51654;51.452;6.644;2022-07-23T11:30:47;28.80;30.50
65064;DHT22;51654;51.452;6.644;2022-07-23T11:33:15;28.70;30.70
65064;DHT22;51654;51.452;6.644;2022-07-23T11:36:01;28.60;31.40
65064;DHT22;51654;51.452;6.644;2022-07-23T11:38:31;28.60;31.90
65064;DHT22;51654;51.452;6.644;2022-07-23T11:40:58;28.60;31.70
65064;DHT22;51654;51.452;6.644;2022-07-23T11:43:26;28.50;31.70
65064;DHT22;51654;51.452;6.644;2022-07-23T11:45:56;28.50;31.70
65064;DHT22;51654;51.452;6.644;2022-07-23T11:48:25;28.50;31.50
65064;DHT22;51654;51.452;6.644;2022-07-23T11:50:53;28.40;31.50
65064;DHT22;51654;51.452;6.644;2022-07-23T11:53:28;28.40;31.30
65064;DHT22;51654;51.452;6.644;2022-07-23T11:56:11;28.10;31.20
65064;DHT22;51654;51.452;6.644;2022-07-23T11:58:38;28.00;31.90
65064;DHT22;51654;51.452;6.644;2022-07-23T12:01:06;28.00;32.40
65064;DHT22;51654;51.452;6.644;2022-07-23T12:03:49;28.00;32.10
65064;DHT22;51654;51.452;6.644;2022-07-23T12:06:18;28.00;32.50
65064;DHT22;51654;51.452;6.644;2022-07-23T12:08:45;28.10;32.40
65064;DHT22;51654;51.452;6.644;2022-07-23T12:11:12;28.10;32.00
65064;DHT22;51654;51.452;6.644;2022-07-23T12:13:39;28.00;31.80
65064;DHT22;51654;51.452;6.644;2022-07-23T12:16:06;28.00;31.80
65064;DHT22;51654;51.452;6.644;2022-07-23T12:18:35;27.90;31.50
65064;DHT22;51654;51.452;6.644;2022-07-23T12:21:04;27.70;31.70
65064;DHT22;51654;51.452;6.644;2022-07-23T12:23:33;27.50;31.90
65064;DHT22;51654;51.452;6.644;2022-07-23T12:26:03;27.50;32.60
65064;DHT22;51654;51.452;6.644;2022-07-23T12:28:33;27.50;32.70
65064;DHT22;51654;51.452;6.644;2022-07-23T12:31:01;27.50;32.40
65064;DHT22;51654;51.452;6.644;2022-07-23T12:33:33;27.40;32.40
65064;DHT22;51654;51.452;6.644;2022-07-23T12:36:03;27.40;32.90
65064;DHT22;51654;51.452;6.644;2022-07-23T12:38:43;27.40;32.80
65064;DHT22;51654;51.452;6.644;2022-07-23T12:41:10;27.50;32.80
65064;DHT22;51654;51.452;6.644;2022-07-23T12:43:40;27.50;32.20
65064;DHT22;51654;51.452;6.644;2022-07-23T12:46:13;27.50;32.80
65064;DHT22;51654;51.452;6.644;2022-07-23T12:51:28;27.40;32.60
65064;DHT22;51654;51.452;6.644;2022-07-23T12:54:05;27.30;32.60
65064;DHT22;51654;51.452;6.644;2022-07-23T12:56:35;27.40;32.70
65064;DHT22;51654;51.452;6.644;2022-07-23T12:59:11;27.50;33.00
65064;DHT22;51654;51.452;6.644;2022-07-23T13:01:42;27.60;32.60
65064;DHT22;51654;51.452;6.644;2022-07-23T13:04:21;27.50;32.50
65064;DHT22;51654;51.452;6.644;2022-07-23T13:06:52;27.50;33.10
65064;DHT22;51654;51.452;6.644;2022-07-23T13:09:22;27.40;32.60
65064;DHT22;51654;51.452;6.644;2022-07-23T13:11:52;27.20;32.50
65064;DHT22;51654;51.452;6.644;2022-07-23T13:14:19;27.00;32.50
65064;DHT22;51654;51.452;6.644;2022-07-23T13:16:47;26.80;32.90
65064;DHT22;51654;51.452;6.644;2022-07-23T13:19:15;26.80;33.20
65064;DHT22;51654;51.452;6.644;2022-07-23T13:21:45;26.90;33.40
65064;DHT22;51654;51.452;6.644;2022-07-23T13:24:12;27.10;34.10
65064;DHT22;51654;51.452;6.644;2022-07-23T13:26:39;27.20;33.70
65064;DHT22;51654;51.452;6.644;2022-07-23T13:29:06;27.10;34.10
65064;DHT22;51654;51.452;6.644;2022-07-23T13:31:53;27.00;34.10
65064;DHT22;51654;51.452;6.644;2022-07-23T13:34:20;26.90;34.30
65064;DHT22;51654;51.452;6.644;2022-07-23T13:36:47;26.90;34.50
65064;DHT22;51654;51.452;6.644;2022-07-23T13:39:14;26.80;34.20
65064;DHT22;51654;51.452;6.644;2022-07-23T13:41:44;26.90;34.60
65064;DHT22;51654;51.452;6.644;2022-07-23T13:44:16;27.00;34.50
65064;DHT22;51654;51.452;6.644;2022-07-23T13:46:44;27.20;34.40
65064;DHT22;51654;51.452;6.644;2022-07-23T13:49:13;27.40;34.20
65064;DHT22;51654;51.452;6.644;2022-07-23T13:51:41;27.30;33.50
65064;DHT22;51654;51.452;6.644;2022-07-23T13:54:08;27.20;33.70
65064;DHT22;51654;51.452;6.644;2022-07-23T13:56:35;27.10;33.30
65064;DHT22;51654;51.452;6.644;2022-07-23T13:59:02;27.10;33.50
65064;DHT22;51654;51.452;6.644;2022-07-23T14:01:33;27.20;33.80
65064;DHT22;51654;51.452;6.644;2022-07-23T14:04:20;27.30;34.40
65064;DHT22;51654;51.452;6.644;2022-07-23T14:06:47;27.40;34.30
65064;DHT22;51654;51.452;6.644;2022-07-23T14:09:20;27.40;33.60
65064;DHT22;51654;51.452;6.644;2022-07-23T14:11:47;27.40;33.40
65064;DHT22;51654;51.452;6.644;2022-07-23T14:14:25;27.10;33.10
65064;DHT22;51654;51.452;6.644;2022-07-23T14:16:52;26.90;33.40
65064;DHT22;51654;51.452;6.644;2022-07-23T14:19:19;26.70;33.80
65064;DHT22;51654;51.452;6.644;2022-07-23T14:21:46;26.60;34.50
65064;DHT22;51654;51.452;6.644;2022-07-23T14:24:15;26.60;34.70
65064;DHT22;51654;51.452;6.644;2022-07-23T14:26:44;26.60;34.50
65064;DHT22;51654;51.452;6.644;2022-07-23T14:29:11;26.50;34.70
65064;DHT22;51654;51.452;6.644;2022-07-23T14:31:38;26.40;35.10
65064;DHT22;51654;51.452;6.644;2022-07-23T14:34:05;26.40;35.10
65064;DHT22;51654;51.452;6.644;2022-07-23T14:36:33;26.20;35.20
65064;DHT22;51654;51.452;6.644;2022-07-23T14:39:00;26.20;35.30
65064;DHT22;51654;51.452;6.644;2022-07-23T14:41:28;26.30;35.20
65064;DHT22;51654;51.452;6.644;2022-07-23T14:43:55;26.50;35.30
65064;DHT22;51654;51.452;6.644;2022-07-23T14:46:22;26.60;35.10
65064;DHT22;51654;51.452;6.644;2022-07-23T14:48:49;26.50;34.90
65064;DHT22;51654;51.452;6.644;2022-07-23T14:51:16;26.40;35.30
65064;DHT22;51654;51.452;6.644;2022-07-23T14:53:45;26.30;35.20
65064;DHT22;51654;51.452;6.644;2022-07-23T14:56:11;26.30;35.10
65064;DHT22;51654;51.452;6.644;2022-07-23T14:58:40;26.40;35.20
65064;DHT22;51654;51.452;6.644;2022-07-23T15:01:11;26.50;34.70
65064;DHT22;51654;51.452;6.644;2022-07-23T15:03:38;26.50;34.40
65064;DHT22;51654;51.452;6.644;2022-07-23T15:06:08;26.50;34.40
65064;DHT22;51654;51.452;6.644;2022-07-23T15:08:35;26.40;34.50
65064;DHT22;51654;51.452;6.644;2022-07-23T15:11:02;26.50;34.60
65064;DHT22;51654;51.452;6.644;2022-07-23T15:13:28;26.50;34.90
65064;DHT22;51654;51.452;6.644;2022-07-23T15:15:57;26.60;35.50
65064;DHT22;51654;51.452;6.644;2022-07-23T15:18:24;26.70;36.40
65064;DHT22;51654;51.452;6.644;2022-07-23T15:20:51;26.60;35.50
65064;DHT22;51654;51.452;6.644;2022-07-23T15:23:18;26.50;35.90
65064;DHT22;51654;51.452;6.644;2022-07-23T15:25:45;26.50;37.30
65064;DHT22;51654;51.452;6.644;2022-07-23T15:28:16;26.50;37.50
65064;DHT22;51654;51.452;6.644;2022-07-23T15:30:48;26.40;37.40
65064;DHT22;51654;51.452;6.644;2022-07-23T15:33:16;26.30;37.40
65064;DHT22;51654;51.452;6.644;2022-07-23T15:35:47;26.20;37.30
65064;DHT22;51654;51.452;6.644;2022-07-23T15:38:14;26.20;37.60
65064;DHT22;51654;51.452;6.644;2022-07-23T15:40:51;26.20;37.70
65064;DHT22;51654;51.452;6.644;2022-07-23T15:43:17;26.20;37.40
65064;DHT22;51654;51.452;6.644;2022-07-23T15:45:45;26.20;37.60
65064;DHT22;51654;51.452;6.644;2022-07-23T15:48:12;26.10;37.90
65064;DHT22;51654;51.452;6.644;2022-07-23T15:50:42;26.00;37.30
65064;DHT22;51654;51.452;6.644;2022-07-23T15:53:12;26.00;37.60
65064;DHT22;51654;51.452;6.644;2022-07-23T15:55:41;26.00;37.90
65064;DHT22;51654;51.452;6.644;2022-07-23T15:58:11;26.00;37.80
65064;DHT22;51654;51.452;6.644;2022-07-23T16:00:39;26.00;37.90
65064;DHT22;51654;51.452;6.644;2022-07-23T16:03:13;26.00;37.90
65064;DHT22;51654;51.452;6.644;2022-07-23T16:05:41;26.00;37.90
65064;DHT22;51654;51.452;6.644;2022-07-23T16:08:08;25.90;36.80
65064;DHT22;51654;51.452;6.644;2022-07-23T16:10:35;25.70;37.80
65064;DHT22;51654;51.452;6.644;2022-07-23T16:13:02;25.70;37.90
65064;DHT22;51654;51.452;6.644;2022-07-23T16:15:29;25.70;38.40
65064;DHT22;51654;51.452;6.644;2022-07-23T16:17:57;25.70;38.50
65064;DHT22;51654;51.452;6.644;2022-07-23T16:20:24;25.70;38.40
65064;DHT22;51654;51.452;6.644;2022-07-23T16:22:51;25.60;38.60
65064;DHT22;51654;51.452;6.644;2022-07-23T16:25:18;25.60;38.30
65064;DHT22;51654;51.452;6.644;2022-07-23T16:27:45;25.50;38.40
65064;DHT22;51654;51.452;6.644;2022-07-23T16:30:12;25.50;38.50
65064;DHT22;51654;51.452;6.644;2022-07-23T16:32:40;25.50;38.40
65064;DHT22;51654;51.452;6.644;2022-07-23T16:35:09;25.50;38.30
65064;DHT22;51654;51.452;6.644;2022-07-23T16:37:40;25.40;38.30
65064;DHT22;51654;51.452;6.644;2022-07-23T16:40:08;25.40;38.50
65064;DHT22;51654;51.452;6.644;2022-07-23T16:42:35;25.30;38.30
65064;DHT22;51654;51.452;6.644;2022-07-23T16:45:03;25.20;38.20
65064;DHT22;51654;51.452;6.644;2022-07-23T16:47:33;25.10;38.30
65064;DHT22;51654;51.452;6.644;2022-07-23T16:50:00;25.10;39.40
65064;DHT22;51654;51.452;6.644;2022-07-23T16:52:27;25.10;39.10
65064;DHT22;51654;51.452;6.644;2022-07-23T16:54:54;25.10;38.90
65064;DHT22;51654;51.452;6.644;2022-07-23T16:57:21;25.10;39.50
65064;DHT22;51654;51.452;6.644;2022-07-23T16:59:48;25.20;39.40
65064;DHT22;51654;51.452;6.644;2022-07-23T17:02:15;25.20;39.00
65064;DHT22;51654;51.452;6.644;2022-07-23T17:04:42;25.10;39.20
65064;DHT22;51654;51.452;6.644;2022-07-23T17:07:09;25.10;39.40
65064;DHT22;51654;51.452;6.644;2022-07-23T17:09:36;25.10;39.10
65064;DHT22;51654;51.452;6.644;2022-07-23T17:12:03;25.00;39.00
65064;DHT22;51654;51.452;6.644;2022-07-23T17:14:30;25.00;39.50
65064;DHT22;51654;51.452;6.644;2022-07-23T17:16:57;25.00;39.80
65064;DHT22;51654;51.452;6.644;2022-07-23T17:19:24;24.90;39.50
65064;DHT22;51654;51.452;6.644;2022-07-23T17:21:51;24.90;39.50
65064;DHT22;51654;51.452;6.644;2022-07-23T17:24:18;24.90;40.10
65064;DHT22;51654;51.452;6.644;2022-07-23T17:26:46;25.00;39.90
65064;DHT22;51654;51.452;6.644;2022-07-23T17:29:15;24.90;39.80
65064;DHT22;51654;51.452;6.644;2022-07-23T17:31:41;24.90;39.80
65064;DHT22;51654;51.452;6.644;2022-07-23T17:34:09;24.90;39.80
65064;DHT22;51654;51.452;6.644;2022-07-23T17:36:36;24.80;39.80
65064;DHT22;51654;51.452;6.644;2022-07-23T17:39:03;24.70;39.60
65064;DHT22;51654;51.452;6.644;2022-07-23T17:41:32;24.60;39.80
65064;DHT22;51654;51.452;6.644;2022-07-23T17:43:59;24.50;39.90
65064;DHT22;51654;51.452;6.644;2022-07-23T17:46:27;24.50;40.20
65064;DHT22;51654;51.452;6.644;2022-07-23T17:48:54;24.50;40.30
65064;DHT22;51654;51.452;6.644;2022-07-23T17:51:21;24.50;40.60
65064;DHT22;51654;51.452;6.644;2022-07-23T17:53:48;24.50;41.10
65064;DHT22;51654;51.452;6.644;2022-07-23T17:56:15;24.40;40.90
65064;DHT22;51654;51.452;6.644;2022-07-23T17:58:42;24.40;40.90
65064;DHT22;51654;51.452;6.644;2022-07-23T18:01:08;24.30;41.10
65064;DHT22;51654;51.452;6.644;2022-07-23T18:03:37;24.20;41.60
65064;DHT22;51654;51.452;6.644;2022-07-23T18:06:04;24.20;42.10
65064;DHT22;51654;51.452;6.644;2022-07-23T18:08:31;24.30;42.10
65064;DHT22;51654;51.452;6.644;2022-07-23T18:10:57;24.20;42.10
65064;DHT22;51654;51.452;6.644;2022-07-23T18:13:24;24.20;41.90
65064;DHT22;51654;51.452;6.644;2022-07-23T18:15:51;24.10;41.90
65064;DHT22;51654;51.452;6.644;2022-07-23T18:18:18;24.00;42.90
65064;DHT22;51654;51.452;6.644;2022-07-23T18:20:44;24.00;42.60
65064;DHT22;51654;51.452;6.644;2022-07-23T18:23:12;24.00;42.50
65064;DHT22;51654;51.452;6.644;2022-07-23T18:25:39;24.00;42.40
65064;DHT22;51654;51.452;6.644;2022-07-23T18:28:06;23.90;42.50
65064;DHT22;51654;51.452;6.644;2022-07-23T18:30:33;23.80;42.90
65064;DHT22;51654;51.452;6.644;2022-07-23T18:33:00;23.80;42.90
65064;DHT22;51654;51.452;6.644;2022-07-23T18:35:33;23.80;43.50
65064;DHT22;51654;51.452;6.644;2022-07-23T18:38:00;23.80;43.30
65064;DHT22;51654;51.452;6.644;2022-07-23T18:40:27;23.80;44.00
65064;DHT22;51654;51.452;6.644;2022-07-23T18:42:54;23.70;44.40
65064;DHT22;51654;51.452;6.644;2022-07-23T18:45:23;23.70;44.50
65064;DHT22;51654;51.452;6.644;2022-07-23T18:47:50;23.70;44.10
65064;DHT22;51654;51.452;6.644;2022-07-23T18:50:18;23.60;44.00
65064;DHT22;51654;51.452;6.644;2022-07-23T18:52:44;23.60;44.30
65064;DHT22;51654;51.452;6.644;2022-07-23T18:55:11;23.50;44.60
65064;DHT22;51654;51.452;6.644;2022-07-23T18:57:38;23.50;45.00
65064;DHT22;51654;51.452;6.644;2022-07-23T19:00:06;23.40;45.20
65064;DHT22;51654;51.452;6.644;2022-07-23T19:02:33;23.40;45.40
65064;DHT22;51654;51.452;6.644;2022-07-23T19:05:01;23.40;45.70
65064;DHT22;51654;51.452;6.644;2022-07-23T19:07:27;23.40;45.80
65064;DHT22;51654;51.452;6.644;2022-07-23T19:09:55;23.40;45.80
65064;DHT22;51654;51.452;6.644;2022-07-23T19:12:22;23.40;46.00
65064;DHT22;51654;51.452;6.644;2022-07-23T19:14:49;23.30;45.90
65064;DHT22;51654;51.452;6.644;2022-07-23T19:17:16;23.20;45.90
65064;DHT22;51654;51.452;6.644;2022-07-23T19:19:43;23.20;46.10
65064;DHT22;51654;51.452;6.644;2022-07-23T19:22:09;23.10;46.20
65064;DHT22;51654;51.452;6.644;2022-07-23T19:24:36;23.10;46.10
65064;DHT22;51654;51.452;6.644;2022-07-23T19:27:06;23.00;46.20
65064;DHT22;51654;51.452;6.644;2022-07-23T19:29:35;23.00;46.30
65064;DHT22;51654;51.452;6.644;2022-07-23T19:32:03;23.00;46.50
65064;DHT22;51654;51.452;6.644;2022-07-23T19:34:31;23.00;46.60
65064;DHT22;51654;51.452;6.644;2022-07-23T19:36:58;23.00;46.60
65064;DHT22;51654;51.452;6.644;2022-07-23T19:39:26;22.90;46.50
65064;DHT22;51654;51.452;6.644;2022-07-23T19:41:53;22.90;46.80
65064;DHT22;51654;51.452;6.644;2022-07-23T19:44:20;22.80;46.70
65064;DHT22;51654;51.452;6.644;2022-07-23T19:46:46;22.80;47.20
65064;DHT22;51654;51.452;6.644;2022-07-23T19:49:13;22.80;47.30
65064;DHT22;51654;51.452;6.644;2022-07-23T19:51:40;22.80;47.40
65064;DHT22;51654;51.452;6.644;2022-07-23T19:54:07;22.80;47.30
65064;DHT22;51654;51.452;6.644;2022-07-23T19:56:36;22.60;47.40
65064;DHT22;51654;51.452;6.644;2022-07-23T19:59:02;22.60;47.50
65064;DHT22;51654;51.452;6.644;2022-07-23T20:01:30;22.50;47.70
65064;DHT22;51654;51.452;6.644;2022-07-23T20:03:58;22.50;47.80
65064;DHT22;51654;51.452;6.644;2022-07-23T20:06:25;22.40;47.90
65064;DHT22;51654;51.452;6.644;2022-07-23T20:08:52;22.40;48.40
65064;DHT22;51654;51.452;6.644;2022-07-23T20:11:19;22.30;48.40
65064;DHT22;51654;51.452;6.644;2022-07-23T20:13:46;22.30;48.30
65064;DHT22;51654;51.452;6.644;2022-07-23T20:16:16;22.20;48.10
65064;DHT22;51654;51.452;6.644;2022-07-23T20:18:45;22.10;48.30
65064;DHT22;51654;51.452;6.644;2022-07-23T20:21:13;22.00;48.70
65064;DHT22;51654;51.452;6.644;2022-07-23T20:23:39;21.90;49.20
65064;DHT22;51654;51.452;6.644;2022-07-23T20:26:06;21.90;49.50
65064;DHT22;51654;51.452;6.644;2022-07-23T20:28:33;22.00;49.70
65064;DHT22;51654;51.452;6.644;2022-07-23T20:31:00;22.00;49.60
65064;DHT22;51654;51.452;6.644;2022-07-23T20:33:32;22.00;49.50
65064;DHT22;51654;51.452;6.644;2022-07-23T20:36:01;22.00;49.40